createdAt,value
2017-11-21T00:00:42.979Z,817.88
2017-11-21T00:01:43.590Z,817.85
2017-11-21T00:02:44.194Z,817.81
2017-11-21T00:03:44.808Z,817.83
2017-11-21T00:04:45.412Z,817.79
2017-11-21T00:05:46.016Z,817.78
2017-11-21T00:06:46.627Z,817.81
2017-11-21T00:07:47.230Z,817.81
2017-11-21T00:08:47.870Z,817.82
2017-11-21T00:09:48.478Z,817.90
2017-11-21T00:10:49.086Z,817.86
2017-11-21T00:11:49.719Z,817.84
2017-11-21T00:12:50.325Z,817.86
2017-11-21T00:13:50.931Z,817.88
2017-11-21T00:14:51.537Z,817.85
2017-11-21T00:15:52.143Z,817.87
2017-11-21T00:16:52.750Z,817.83
2017-11-21T00:17:53.360Z,817.81
2017-11-21T00:18:53.965Z,817.84
2017-11-21T00:19:54.571Z,817.83
2017-11-21T00:20:55.211Z,817.84
2017-11-21T00:21:55.818Z,817.86
2017-11-21T00:22:56.463Z,817.87
2017-11-21T00:23:57.074Z,817.84
2017-11-21T00:24:57.676Z,817.81
2017-11-21T00:25:58.284Z,817.81
2017-11-21T00:26:58.889Z,817.80
2017-11-21T00:27:59.517Z,817.81
2017-11-21T00:29:00.101Z,817.84
2017-11-21T00:30:00.714Z,817.84
2017-11-21T00:31:01.317Z,817.80
2017-11-21T00:32:01.925Z,817.75
2017-11-21T00:33:02.526Z,817.80
2017-11-21T00:34:03.141Z,817.82
2017-11-21T00:35:03.745Z,817.78
2017-11-21T00:36:04.353Z,817.80
2017-11-21T00:37:04.957Z,817.81
2017-11-21T00:38:05.562Z,817.80
2017-11-21T00:39:06.205Z,817.81
2017-11-21T00:40:06.814Z,817.84
2017-11-21T00:41:07.419Z,817.83
2017-11-21T00:42:08.024Z,817.84
2017-11-21T00:43:08.641Z,817.82
2017-11-21T00:44:09.268Z,817.87
2017-11-21T00:45:09.903Z,817.84
2017-11-21T00:46:10.518Z,817.90
2017-11-21T00:47:11.156Z,817.85
2017-11-21T00:48:11.763Z,817.91
2017-11-21T00:49:12.375Z,817.85
2017-11-21T00:50:12.979Z,817.89
2017-11-21T00:51:13.584Z,817.88
2017-11-21T00:52:14.193Z,817.95
2017-11-21T00:53:14.797Z,817.93
2017-11-21T00:54:15.403Z,817.91
2017-11-21T00:55:16.017Z,817.90
2017-11-21T00:56:16.649Z,817.89
2017-11-21T00:57:17.254Z,817.91
2017-11-21T00:58:17.858Z,817.91
2017-11-21T00:59:18.465Z,817.90
2017-11-21T01:00:19.083Z,817.91
2017-11-21T01:01:19.720Z,817.93
2017-11-21T01:02:20.315Z,817.88
2017-11-21T01:03:20.922Z,817.87
2017-11-21T01:04:21.526Z,817.84
2017-11-21T01:05:22.161Z,817.87
2017-11-21T01:06:22.767Z,817.81
2017-11-21T01:07:23.423Z,817.83
2017-11-21T01:08:24.029Z,817.80
2017-11-21T01:09:24.635Z,817.77
2017-11-21T01:10:25.246Z,817.74
2017-11-21T01:11:25.865Z,817.75
2017-11-21T01:12:26.459Z,817.74
2017-11-21T01:13:27.074Z,817.77
2017-11-21T01:14:27.710Z,817.78
2017-11-21T01:15:28.308Z,817.79
2017-11-21T01:16:28.913Z,817.81
2017-11-21T01:17:29.519Z,817.80
2017-11-21T01:18:30.127Z,817.76
2017-11-21T01:19:30.730Z,817.78
2017-11-21T01:20:31.338Z,817.73
2017-11-21T01:21:31.952Z,817.79
2017-11-21T01:22:32.551Z,817.78
2017-11-21T01:23:33.161Z,817.82
2017-11-21T01:24:33.764Z,817.82
2017-11-21T01:25:34.371Z,817.85
2017-11-21T01:26:34.979Z,817.86
2017-11-21T01:27:35.586Z,817.83
2017-11-21T01:28:36.192Z,817.88
2017-11-21T01:29:36.798Z,817.86
2017-11-21T01:30:37.409Z,817.87
2017-11-21T01:31:38.014Z,817.88
2017-11-21T01:32:38.670Z,817.86
2017-11-21T01:33:39.277Z,817.88
2017-11-21T01:34:39.893Z,817.86
2017-11-21T01:35:40.493Z,817.91
2017-11-21T01:36:41.099Z,817.89
2017-11-21T01:37:41.757Z,817.93
2017-11-21T01:38:42.367Z,817.90
2017-11-21T01:39:42.971Z,817.86
2017-11-21T01:40:43.577Z,817.94
2017-11-21T01:41:44.180Z,817.92
2017-11-21T01:42:44.840Z,817.92
2017-11-21T01:43:45.446Z,817.91
2017-11-21T01:44:46.055Z,817.90
2017-11-21T01:45:46.665Z,817.89
2017-11-21T01:46:47.300Z,817.88
2017-11-21T01:47:47.906Z,817.84
2017-11-21T01:48:48.513Z,817.76
2017-11-21T01:49:49.119Z,817.80
2017-11-21T01:50:49.729Z,817.77
2017-11-21T01:51:50.336Z,817.72
2017-11-21T01:52:50.975Z,817.75
2017-11-21T01:53:51.584Z,817.74
2017-11-21T01:54:52.186Z,817.70
2017-11-21T01:55:52.829Z,817.71
2017-11-21T01:56:53.426Z,817.75
2017-11-21T01:57:54.032Z,817.75
2017-11-21T01:58:54.643Z,817.73
2017-11-21T01:59:55.273Z,817.71
2017-11-21T02:00:55.879Z,817.76
2017-11-21T02:01:56.494Z,817.75
2017-11-21T02:02:57.091Z,817.71
2017-11-21T02:03:57.700Z,817.70
2017-11-21T02:04:58.308Z,817.69
2017-11-21T02:05:58.917Z,817.71
2017-11-21T02:06:59.518Z,817.77
2017-11-21T02:08:00.154Z,817.72
2017-11-21T02:09:00.762Z,817.69
2017-11-21T02:10:01.363Z,817.70
2017-11-21T02:11:01.971Z,817.69
2017-11-21T02:12:02.580Z,817.73
2017-11-21T02:13:03.181Z,817.75
2017-11-21T02:14:03.793Z,817.76
2017-11-21T02:15:04.399Z,817.78
2017-11-21T02:16:05.006Z,817.81
2017-11-21T02:17:05.612Z,817.78
2017-11-21T02:18:06.249Z,817.79
2017-11-21T02:19:06.861Z,817.78
2017-11-21T02:20:07.463Z,817.77
2017-11-21T02:21:08.068Z,817.82
2017-11-21T02:22:08.674Z,817.80
2017-11-21T02:23:09.280Z,817.79
2017-11-21T02:24:09.890Z,817.74
2017-11-21T02:25:10.490Z,817.77
2017-11-21T02:26:11.094Z,817.77
2017-11-21T02:27:11.700Z,817.74
2017-11-21T02:28:12.305Z,817.80
2017-11-21T02:29:12.939Z,817.74
2017-11-21T02:30:13.544Z,817.78
2017-11-21T02:31:14.149Z,817.73
2017-11-21T02:32:14.755Z,817.78
2017-11-21T02:33:15.359Z,817.77
2017-11-21T02:34:15.965Z,817.75
2017-11-21T02:35:16.569Z,817.68
2017-11-21T02:36:17.178Z,817.71
2017-11-21T02:37:17.783Z,817.70
2017-11-21T02:38:18.391Z,817.74
2017-11-21T02:39:19.032Z,817.73
2017-11-21T02:40:19.645Z,817.66
2017-11-21T02:41:20.279Z,817.66
2017-11-21T02:42:20.881Z,817.71
2017-11-21T02:43:21.488Z,817.68
2017-11-21T02:44:22.092Z,817.67
2017-11-21T02:45:22.697Z,817.66
2017-11-21T02:46:23.310Z,817.65
2017-11-21T02:47:23.919Z,817.63
2017-11-21T02:48:24.528Z,817.59
2017-11-21T02:49:25.135Z,817.62
2017-11-21T02:50:25.770Z,817.59
2017-11-21T02:51:26.381Z,817.61
2017-11-21T02:52:26.985Z,817.62
2017-11-21T02:53:27.594Z,817.61
2017-11-21T02:54:28.201Z,817.61
2017-11-21T02:55:28.809Z,817.60
2017-11-21T02:56:29.412Z,817.55
2017-11-21T02:57:30.020Z,817.56
2017-11-21T02:58:30.624Z,817.51
2017-11-21T02:59:31.230Z,817.52
2017-11-21T03:00:31.840Z,817.53
2017-11-21T03:01:32.446Z,817.54
2017-11-21T03:02:33.055Z,817.53
2017-11-21T03:03:33.659Z,817.55
2017-11-21T03:04:34.271Z,817.51
2017-11-21T03:05:34.909Z,817.54
2017-11-21T03:06:35.519Z,817.54
2017-11-21T03:07:36.121Z,817.52
2017-11-21T03:08:36.729Z,817.52
2017-11-21T03:09:37.334Z,817.53
2017-11-21T03:10:37.940Z,817.53
2017-11-21T03:11:38.549Z,817.56
2017-11-21T03:12:39.151Z,817.55
2017-11-21T03:13:39.787Z,817.55
2017-11-21T03:14:40.393Z,817.57
2017-11-21T03:15:40.999Z,817.58
2017-11-21T03:16:41.609Z,817.55
2017-11-21T03:17:42.211Z,817.54
2017-11-21T03:18:42.814Z,817.54
2017-11-21T03:19:43.424Z,817.52
2017-11-21T03:20:44.032Z,817.55
2017-11-21T03:21:44.644Z,817.57
2017-11-21T03:22:45.248Z,817.62
2017-11-21T03:23:45.853Z,817.59
2017-11-21T03:24:46.458Z,817.61
2017-11-21T03:25:47.064Z,817.56
2017-11-21T03:26:47.675Z,817.57
2017-11-21T03:27:48.282Z,817.53
2017-11-21T03:28:48.890Z,817.52
2017-11-21T03:29:49.500Z,817.51
2017-11-21T03:30:50.111Z,817.54
2017-11-21T03:31:50.717Z,817.50
2017-11-21T03:32:51.322Z,817.47
2017-11-21T03:33:51.928Z,817.49
2017-11-21T03:34:52.531Z,817.51
2017-11-21T03:35:53.135Z,817.51
2017-11-21T03:36:53.740Z,817.46
2017-11-21T03:37:54.345Z,817.49
2017-11-21T03:38:54.952Z,817.52
2017-11-21T03:39:55.562Z,817.53
2017-11-21T03:40:56.166Z,817.48
2017-11-21T03:41:56.803Z,817.49
2017-11-21T03:42:57.407Z,817.46
2017-11-21T03:43:58.012Z,817.43
2017-11-21T03:44:58.624Z,817.41
2017-11-21T03:45:59.229Z,817.43
2017-11-21T03:46:59.840Z,817.47
2017-11-21T03:48:00.442Z,817.49
2017-11-21T03:49:01.048Z,817.47
2017-11-21T03:50:01.654Z,817.50
2017-11-21T03:51:02.276Z,817.46
2017-11-21T03:52:02.868Z,817.51
2017-11-21T03:53:03.472Z,817.49
2017-11-21T03:54:04.112Z,817.47
2017-11-21T03:55:04.714Z,817.49
2017-11-21T03:56:05.318Z,817.50
2017-11-21T03:57:05.930Z,817.51
2017-11-21T03:58:06.538Z,817.54
2017-11-21T03:59:07.138Z,817.53
2017-11-21T04:00:07.741Z,817.54
2017-11-21T04:01:08.350Z,817.56
2017-11-21T04:02:08.989Z,817.54
2017-11-21T04:03:09.623Z,817.58
2017-11-21T04:04:10.257Z,817.57
2017-11-21T04:05:10.862Z,817.59
2017-11-21T04:06:11.500Z,817.60
2017-11-21T04:07:12.110Z,817.62
2017-11-21T04:08:12.718Z,817.64
2017-11-21T04:09:13.322Z,817.62
2017-11-21T04:10:13.927Z,817.67
2017-11-21T04:11:14.532Z,817.70
2017-11-21T04:12:15.138Z,817.68
2017-11-21T04:13:15.759Z,817.68
2017-11-21T04:14:16.350Z,817.61
2017-11-21T04:15:16.954Z,817.68
2017-11-21T04:16:17.561Z,817.65
2017-11-21T04:17:18.168Z,817.62
2017-11-21T04:18:18.776Z,817.64
2017-11-21T04:19:19.381Z,817.68
2017-11-21T04:20:19.986Z,817.67
2017-11-21T04:21:20.621Z,817.64
2017-11-21T04:22:21.203Z,817.64
2017-11-21T04:23:21.807Z,817.57
2017-11-21T04:24:22.412Z,817.60
2017-11-21T04:25:23.023Z,817.63
2017-11-21T04:26:23.623Z,817.60
2017-11-21T04:27:24.233Z,817.60
2017-11-21T04:28:24.843Z,817.64
2017-11-21T04:29:25.445Z,817.63
2017-11-21T04:30:26.081Z,817.59
2017-11-21T04:31:26.686Z,817.65
2017-11-21T04:32:27.294Z,817.65
2017-11-21T04:33:27.901Z,817.64
2017-11-21T04:34:28.505Z,817.62
2017-11-21T04:35:29.116Z,817.67
2017-11-21T04:36:29.721Z,817.68
2017-11-21T04:37:30.326Z,817.67
2017-11-21T04:38:30.931Z,817.69
2017-11-21T04:39:31.536Z,817.69
2017-11-21T04:40:32.143Z,817.71
2017-11-21T04:41:32.751Z,817.69
2017-11-21T04:42:33.354Z,817.75
2017-11-21T04:43:33.968Z,817.78
2017-11-21T04:44:34.570Z,817.74
2017-11-21T04:45:35.174Z,817.70
2017-11-21T04:46:35.813Z,817.77
2017-11-21T04:47:36.419Z,817.72
2017-11-21T04:48:37.058Z,817.72
2017-11-21T04:49:37.670Z,817.76
2017-11-21T04:50:38.272Z,817.77
2017-11-21T04:51:38.877Z,817.80
2017-11-21T04:52:39.486Z,817.78
2017-11-21T04:53:40.089Z,817.76
2017-11-21T04:54:40.746Z,817.77
2017-11-21T04:55:41.351Z,817.73
2017-11-21T04:56:41.955Z,817.74
2017-11-21T04:57:42.566Z,817.76
2017-11-21T04:58:43.170Z,817.72
2017-11-21T04:59:43.778Z,817.71
2017-11-21T05:00:44.390Z,817.66
2017-11-21T05:01:44.991Z,817.65
2017-11-21T05:02:45.598Z,817.68
2017-11-21T05:03:46.208Z,817.67
2017-11-21T05:04:46.812Z,817.67
2017-11-21T05:05:47.446Z,817.64
2017-11-21T05:06:48.057Z,817.66
2017-11-21T05:07:48.661Z,817.65
2017-11-21T05:08:49.266Z,817.67
2017-11-21T05:09:49.874Z,817.65
2017-11-21T05:10:50.526Z,817.64
2017-11-21T05:11:51.145Z,817.65
2017-11-21T05:12:51.751Z,817.61
2017-11-21T05:13:52.357Z,817.67
2017-11-21T05:14:52.962Z,817.65
2017-11-21T05:15:53.570Z,817.68
2017-11-21T05:16:54.180Z,817.69
2017-11-21T05:17:54.783Z,817.65
2017-11-21T05:18:55.417Z,817.66
2017-11-21T05:19:56.053Z,817.66
2017-11-21T05:20:56.659Z,817.65
2017-11-21T05:21:57.263Z,817.66
2017-11-21T05:22:57.875Z,817.64
2017-11-21T05:23:58.481Z,817.66
2017-11-21T05:24:59.086Z,817.65
2017-11-21T05:25:59.695Z,817.60
2017-11-21T05:27:00.297Z,817.65
2017-11-21T05:28:00.934Z,817.64
2017-11-21T05:29:01.540Z,817.59
2017-11-21T05:30:02.145Z,817.61
2017-11-21T05:31:02.758Z,817.63
2017-11-21T05:32:03.359Z,817.65
2017-11-21T05:33:03.999Z,817.64
2017-11-21T05:34:04.639Z,817.60
2017-11-21T05:35:05.243Z,817.60
2017-11-21T05:36:05.848Z,817.65
2017-11-21T05:37:06.454Z,817.63
2017-11-21T05:38:07.060Z,817.62
2017-11-21T05:39:07.664Z,817.58
2017-11-21T05:40:08.275Z,817.60
2017-11-21T05:41:08.885Z,817.58
2017-11-21T05:42:09.487Z,817.56
2017-11-21T05:43:10.092Z,817.57
2017-11-21T05:44:10.734Z,817.57
2017-11-21T05:45:11.338Z,817.59
2017-11-21T05:46:11.943Z,817.63
2017-11-21T05:47:12.553Z,817.66
2017-11-21T05:48:13.158Z,817.62
2017-11-21T05:49:13.770Z,817.65
2017-11-21T05:50:14.409Z,817.58
2017-11-21T05:51:15.014Z,817.58
2017-11-21T05:52:15.619Z,817.65
2017-11-21T05:53:16.224Z,817.61
2017-11-21T05:54:16.834Z,817.62
2017-11-21T05:55:17.437Z,817.62
2017-11-21T05:56:18.051Z,817.57
2017-11-21T05:57:18.655Z,817.56
2017-11-21T05:58:19.261Z,817.49
2017-11-21T05:59:19.871Z,817.49
2017-11-21T06:00:20.478Z,817.49
2017-11-21T06:01:21.113Z,817.40
2017-11-21T06:02:21.717Z,817.47
2017-11-21T06:03:22.325Z,817.45
2017-11-21T06:04:22.927Z,817.46
2017-11-21T06:05:23.532Z,817.49
2017-11-21T06:06:24.145Z,817.45
2017-11-21T06:07:24.747Z,817.46
2017-11-21T06:08:25.351Z,817.48
2017-11-21T06:09:25.957Z,817.44
2017-11-21T06:10:26.566Z,817.44
2017-11-21T06:11:27.173Z,817.44
2017-11-21T06:12:27.778Z,817.44
2017-11-21T06:13:28.391Z,817.46
2017-11-21T06:14:28.993Z,817.42
2017-11-21T06:15:29.597Z,817.45
2017-11-21T06:16:30.205Z,817.43
2017-11-21T06:17:30.841Z,817.43
2017-11-21T06:18:31.446Z,817.38
2017-11-21T06:19:32.051Z,817.43
2017-11-21T06:20:32.659Z,817.43
2017-11-21T06:21:33.265Z,817.42
2017-11-21T06:22:33.869Z,817.38
2017-11-21T06:23:34.474Z,817.41
2017-11-21T06:24:35.086Z,817.40
2017-11-21T06:25:35.687Z,817.40
2017-11-21T06:26:36.293Z,817.43
2017-11-21T06:27:36.900Z,817.44
2017-11-21T06:28:37.506Z,817.45
2017-11-21T06:29:38.118Z,817.45
2017-11-21T06:30:38.721Z,817.44
2017-11-21T06:31:39.363Z,817.48
2017-11-21T06:32:39.965Z,817.52
2017-11-21T06:33:40.569Z,817.55
2017-11-21T06:34:41.179Z,817.54
2017-11-21T06:35:41.782Z,817.60
2017-11-21T06:36:42.388Z,817.58
2017-11-21T06:37:42.993Z,817.58
2017-11-21T06:38:43.634Z,817.61
2017-11-21T06:39:44.239Z,817.62
2017-11-21T06:40:44.844Z,817.63
2017-11-21T06:41:45.450Z,817.67
2017-11-21T06:42:46.054Z,817.68
2017-11-21T06:43:46.666Z,817.72
2017-11-21T06:44:47.279Z,817.72
2017-11-21T06:45:47.880Z,817.71
2017-11-21T06:46:48.488Z,817.76
2017-11-21T06:47:49.092Z,817.70
2017-11-21T06:48:49.703Z,817.72
2017-11-21T06:49:50.305Z,817.76
2017-11-21T06:50:50.941Z,817.76
2017-11-21T06:51:51.544Z,817.79
2017-11-21T06:52:52.152Z,817.81
2017-11-21T06:53:52.769Z,817.77
2017-11-21T06:54:53.400Z,817.80
2017-11-21T06:55:54.006Z,817.86
2017-11-21T06:56:54.616Z,817.84
2017-11-21T06:57:55.222Z,817.84
2017-11-21T06:58:55.825Z,817.86
2017-11-21T06:59:56.430Z,817.88
2017-11-21T07:00:57.039Z,817.88
2017-11-21T07:01:57.648Z,817.88
2017-11-21T07:02:58.260Z,817.84
2017-11-21T07:03:58.871Z,817.91
2017-11-21T07:04:59.474Z,817.92
2017-11-21T07:06:00.080Z,817.92
2017-11-21T07:07:00.686Z,817.97
2017-11-21T07:08:01.292Z,817.93
2017-11-21T07:09:01.905Z,817.97
2017-11-21T07:10:02.512Z,817.95
2017-11-21T07:11:03.121Z,817.96
2017-11-21T07:12:03.726Z,817.96
2017-11-21T07:13:04.367Z,817.95
2017-11-21T07:14:04.975Z,817.97
2017-11-21T07:15:05.587Z,818.00
2017-11-21T07:16:06.191Z,818.02
2017-11-21T07:17:06.797Z,818.03
2017-11-21T07:18:07.432Z,818.05
2017-11-21T07:19:08.037Z,818.06
2017-11-21T07:20:08.649Z,818.08
2017-11-21T07:21:09.249Z,818.05
2017-11-21T07:22:09.860Z,818.09
2017-11-21T07:23:10.463Z,818.12
2017-11-21T07:24:11.074Z,818.09
2017-11-21T07:25:11.676Z,818.16
2017-11-21T07:26:12.284Z,818.11
2017-11-21T07:27:12.891Z,818.09
2017-11-21T07:28:13.500Z,818.14
2017-11-21T07:29:14.104Z,818.11
2017-11-21T07:30:14.709Z,818.11
2017-11-21T07:31:15.316Z,818.13
2017-11-21T07:32:15.920Z,818.13
2017-11-21T07:33:16.563Z,818.13
2017-11-21T07:34:17.166Z,818.15
2017-11-21T07:35:17.772Z,818.16
2017-11-21T07:36:18.387Z,818.16
2017-11-21T07:37:18.991Z,818.18
2017-11-21T07:38:19.598Z,818.14
2017-11-21T07:39:20.217Z,818.17
2017-11-21T07:40:20.824Z,818.13
2017-11-21T07:41:21.423Z,818.12
2017-11-21T07:42:22.029Z,818.12
2017-11-21T07:43:22.640Z,818.15
2017-11-21T07:44:23.246Z,818.18
2017-11-21T07:45:23.852Z,818.17
2017-11-21T07:46:24.458Z,818.18
2017-11-21T07:47:25.068Z,818.11
2017-11-21T07:48:25.682Z,818.10
2017-11-21T07:49:26.288Z,818.12
2017-11-21T07:50:26.900Z,818.13
2017-11-21T07:51:27.508Z,818.14
2017-11-21T07:52:28.124Z,818.09
2017-11-21T07:53:28.736Z,818.10
2017-11-21T07:54:29.339Z,818.15
2017-11-21T07:55:29.946Z,818.14
2017-11-21T07:56:30.553Z,818.15
2017-11-21T07:57:31.160Z,818.16
2017-11-21T07:58:31.770Z,818.11
2017-11-21T07:59:32.377Z,818.12
2017-11-21T08:00:32.984Z,818.06
2017-11-21T08:01:33.598Z,818.05
2017-11-21T08:02:34.200Z,818.09
2017-11-21T08:03:34.814Z,818.09
2017-11-21T08:04:35.425Z,818.06
2017-11-21T08:05:36.065Z,818.05
2017-11-21T08:06:36.675Z,818.07
2017-11-21T08:07:37.285Z,818.07
2017-11-21T08:08:37.895Z,818.07
2017-11-21T08:09:38.502Z,818.10
2017-11-21T08:10:39.114Z,818.06
2017-11-21T08:11:39.731Z,818.08
2017-11-21T08:12:40.337Z,818.09
2017-11-21T08:13:40.945Z,818.05
2017-11-21T08:14:41.554Z,818.03
2017-11-21T08:15:42.164Z,818.01
2017-11-21T08:16:42.772Z,818.00
2017-11-21T08:17:43.380Z,818.04
2017-11-21T08:18:43.991Z,818.02
2017-11-21T08:19:44.602Z,818.01
2017-11-21T08:20:45.213Z,818.01
2017-11-21T08:21:45.821Z,817.99
2017-11-21T08:22:46.430Z,818.02
2017-11-21T08:23:47.039Z,818.01
2017-11-21T08:24:47.647Z,818.00
2017-11-21T08:25:48.292Z,817.99
2017-11-21T08:26:48.905Z,818.00
2017-11-21T08:27:49.514Z,818.05
2017-11-21T08:28:50.122Z,818.04
2017-11-21T08:29:50.732Z,818.06
2017-11-21T08:30:51.343Z,818.08
2017-11-21T08:31:51.952Z,818.05
2017-11-21T08:32:52.565Z,818.06
2017-11-21T08:33:53.203Z,818.06
2017-11-21T08:34:53.819Z,818.04
2017-11-21T08:35:54.432Z,818.03
2017-11-21T08:36:55.039Z,818.02
2017-11-21T08:37:55.651Z,818.05
2017-11-21T08:38:56.264Z,818.05
2017-11-21T08:39:56.876Z,818.03
2017-11-21T08:40:57.485Z,818.06
2017-11-21T08:41:58.095Z,818.06
2017-11-21T08:42:58.705Z,818.08
2017-11-21T08:43:59.320Z,818.10
2017-11-21T08:44:59.927Z,818.07
2017-11-21T08:46:00.537Z,818.06
2017-11-21T08:47:01.153Z,818.08
2017-11-21T08:48:01.766Z,818.10
2017-11-21T08:49:02.372Z,818.09
2017-11-21T08:50:03.015Z,818.13
2017-11-21T08:51:03.623Z,818.14
2017-11-21T08:52:04.238Z,818.14
2017-11-21T08:53:04.863Z,818.16
2017-11-21T08:54:05.488Z,818.19
2017-11-21T08:55:06.100Z,818.19
2017-11-21T08:56:06.711Z,818.21
2017-11-21T08:57:07.320Z,818.23
2017-11-21T08:58:07.931Z,818.24
2017-11-21T08:59:08.541Z,818.21
2017-11-21T09:00:09.153Z,818.21
2017-11-21T09:01:09.761Z,818.20
2017-11-21T09:02:10.370Z,818.22
2017-11-21T09:03:10.981Z,818.23
2017-11-21T09:04:11.596Z,818.23
2017-11-21T09:05:12.203Z,818.29
2017-11-21T09:06:12.817Z,818.31
2017-11-21T09:07:13.430Z,818.29
2017-11-21T09:08:14.036Z,818.30
2017-11-21T09:09:14.647Z,818.32
2017-11-21T09:10:15.257Z,818.28
2017-11-21T09:11:15.871Z,818.31
2017-11-21T09:12:16.531Z,818.33
2017-11-21T09:13:17.145Z,818.32
2017-11-21T09:14:17.751Z,818.33
2017-11-21T09:15:18.368Z,818.31
2017-11-21T09:16:18.981Z,818.37
2017-11-21T09:17:19.589Z,818.36
2017-11-21T09:18:20.202Z,818.39
2017-11-21T09:19:20.817Z,818.36
2017-11-21T09:20:21.426Z,818.30
2017-11-21T09:21:22.038Z,818.28
2017-11-21T09:22:22.654Z,818.24
2017-11-21T09:23:23.268Z,818.24
2017-11-21T09:24:23.875Z,818.22
2017-11-21T09:25:24.487Z,818.23
2017-11-21T09:26:25.097Z,818.20
2017-11-21T09:27:25.715Z,818.23
2017-11-21T09:28:26.324Z,818.25
2017-11-21T09:29:26.938Z,818.26
2017-11-21T09:30:27.582Z,818.27
2017-11-21T09:31:28.191Z,818.29
2017-11-21T09:32:28.800Z,818.31
2017-11-21T09:33:29.441Z,818.33
2017-11-21T09:34:30.051Z,818.34
2017-11-21T09:35:30.667Z,818.34
2017-11-21T09:36:31.277Z,818.31
2017-11-21T09:37:31.888Z,818.27
2017-11-21T09:38:32.500Z,818.31
2017-11-21T09:39:33.110Z,818.29
2017-11-21T09:40:33.721Z,818.25
2017-11-21T09:41:34.337Z,818.26
2017-11-21T09:42:34.947Z,818.22
2017-11-21T09:43:35.562Z,818.22
2017-11-21T09:44:36.207Z,818.21
2017-11-21T09:45:36.815Z,818.22
2017-11-21T09:46:37.436Z,818.20
2017-11-21T09:47:38.040Z,818.23
2017-11-21T09:48:38.652Z,818.22
2017-11-21T09:49:39.266Z,818.27
2017-11-21T09:50:39.888Z,818.23
2017-11-21T09:51:40.530Z,818.27
2017-11-21T09:52:41.139Z,818.23
2017-11-21T09:53:41.752Z,818.26
2017-11-21T09:54:42.382Z,818.27
2017-11-21T09:55:42.974Z,818.25
2017-11-21T09:56:43.595Z,818.27
2017-11-21T09:57:44.210Z,818.22
2017-11-21T09:58:44.819Z,818.25
2017-11-21T09:59:45.437Z,818.22
2017-11-21T10:00:46.046Z,818.23
2017-11-21T10:01:46.666Z,818.20
2017-11-21T10:02:47.274Z,818.22
2017-11-21T10:03:47.892Z,818.27
2017-11-21T10:04:48.507Z,818.26
2017-11-21T10:05:49.118Z,818.26
2017-11-21T10:06:49.736Z,818.27
2017-11-21T10:07:50.351Z,818.23
2017-11-21T10:08:50.999Z,818.24
2017-11-21T10:09:51.613Z,818.23
2017-11-21T10:10:52.227Z,818.21
2017-11-21T10:11:52.838Z,818.25
2017-11-21T10:12:53.447Z,818.25
2017-11-21T10:13:54.065Z,818.30
2017-11-21T10:14:54.680Z,818.28
2017-11-21T10:15:55.288Z,818.25
2017-11-21T10:16:55.900Z,818.25
2017-11-21T10:17:56.516Z,818.26
2017-11-21T10:18:57.163Z,818.29
2017-11-21T10:19:57.768Z,818.30
2017-11-21T10:20:58.381Z,818.29
2017-11-21T10:21:58.993Z,818.31
2017-11-21T10:22:59.606Z,818.27
2017-11-21T10:24:00.218Z,818.24
2017-11-21T10:25:00.830Z,818.23
2017-11-21T10:26:01.444Z,818.27
2017-11-21T10:27:02.058Z,818.27
2017-11-21T10:28:02.668Z,818.33
2017-11-21T10:29:03.308Z,818.32
2017-11-21T10:30:03.920Z,818.31
2017-11-21T10:31:04.539Z,818.31
2017-11-21T10:32:05.142Z,818.28
2017-11-21T10:33:05.756Z,818.31
2017-11-21T10:34:06.397Z,818.30
2017-11-21T10:35:07.016Z,818.26
2017-11-21T10:36:07.624Z,818.27
2017-11-21T10:37:08.234Z,818.20
2017-11-21T10:38:08.852Z,818.24
2017-11-21T10:39:09.461Z,818.23
2017-11-21T10:40:10.072Z,818.25
2017-11-21T10:41:10.689Z,818.21
2017-11-21T10:42:11.330Z,818.21
2017-11-21T10:43:11.942Z,818.20
2017-11-21T10:44:12.556Z,818.21
2017-11-21T10:45:13.166Z,818.19
2017-11-21T10:46:13.778Z,818.18
2017-11-21T10:47:14.395Z,818.17
2017-11-21T10:48:15.004Z,818.20
2017-11-21T10:49:15.619Z,818.19
2017-11-21T10:50:16.234Z,818.17
2017-11-21T10:51:16.842Z,818.19
2017-11-21T10:52:17.455Z,818.21
2017-11-21T10:53:18.065Z,818.20
2017-11-21T10:54:18.682Z,818.23
2017-11-21T10:55:19.298Z,818.22
2017-11-21T10:56:19.902Z,818.18
2017-11-21T10:57:20.516Z,818.17
2017-11-21T10:58:21.132Z,818.17
2017-11-21T10:59:21.743Z,818.14
2017-11-21T11:00:22.354Z,818.15
2017-11-21T11:01:22.966Z,818.12
2017-11-21T11:02:23.614Z,818.14
2017-11-21T11:03:24.276Z,818.10
2017-11-21T11:04:24.887Z,818.12
2017-11-21T11:05:25.499Z,818.12
2017-11-21T11:06:26.112Z,818.18
2017-11-21T11:07:26.722Z,818.19
2017-11-21T11:08:27.334Z,818.18
2017-11-21T11:09:27.954Z,818.12
2017-11-21T11:10:28.568Z,818.18
2017-11-21T11:11:29.181Z,818.15
2017-11-21T11:12:29.798Z,818.10
2017-11-21T11:13:30.406Z,818.13
2017-11-21T11:14:31.022Z,818.15
2017-11-21T11:15:31.635Z,818.14
2017-11-21T11:16:32.248Z,818.14
2017-11-21T11:17:32.864Z,818.18
2017-11-21T11:18:33.478Z,818.15
2017-11-21T11:19:34.088Z,818.15
2017-11-21T11:20:34.708Z,818.18
2017-11-21T11:21:35.316Z,818.17
2017-11-21T11:22:35.933Z,818.15
2017-11-21T11:23:36.542Z,818.24
2017-11-21T11:24:37.153Z,818.21
2017-11-21T11:25:37.765Z,818.26
2017-11-21T11:26:38.377Z,818.26
2017-11-21T11:27:38.988Z,818.25
2017-11-21T11:28:39.601Z,818.27
2017-11-21T11:29:40.216Z,818.27
2017-11-21T11:30:40.825Z,818.28
2017-11-21T11:31:41.437Z,818.25
2017-11-21T11:32:42.078Z,818.24
2017-11-21T11:33:42.739Z,818.22
2017-11-21T11:34:43.358Z,818.16
2017-11-21T11:35:43.968Z,818.20
2017-11-21T11:36:44.584Z,818.22
2017-11-21T11:37:45.222Z,818.23
2017-11-21T11:38:45.803Z,818.22
2017-11-21T11:39:46.414Z,818.22
2017-11-21T11:40:47.026Z,818.26
2017-11-21T11:41:47.639Z,818.22
2017-11-21T11:42:48.251Z,818.23
2017-11-21T11:43:48.861Z,818.20
2017-11-21T11:44:49.475Z,818.21
2017-11-21T11:45:50.091Z,818.16
2017-11-21T11:46:50.700Z,818.13
2017-11-21T11:47:51.313Z,818.15
2017-11-21T11:48:51.933Z,818.12
2017-11-21T11:49:52.573Z,818.13
2017-11-21T11:50:53.183Z,818.18
2017-11-21T11:51:53.797Z,818.12
2017-11-21T11:52:54.407Z,818.12
2017-11-21T11:53:55.021Z,818.09
2017-11-21T11:54:55.631Z,818.06
2017-11-21T11:55:56.242Z,818.13
2017-11-21T11:56:56.854Z,818.10
2017-11-21T11:57:57.464Z,818.05
2017-11-21T11:58:58.128Z,818.07
2017-11-21T11:59:58.744Z,818.05
2017-11-21T12:00:59.354Z,818.08
2017-11-21T12:01:59.965Z,818.08
2017-11-21T12:03:00.576Z,818.09
2017-11-21T12:04:01.187Z,818.05
2017-11-21T12:05:01.814Z,818.02
2017-11-21T12:06:02.412Z,817.98
2017-11-21T12:07:03.024Z,817.93
2017-11-21T12:08:03.638Z,817.92
2017-11-21T12:09:04.250Z,817.95
2017-11-21T12:10:04.892Z,817.97
2017-11-21T12:11:05.508Z,817.93
2017-11-21T12:12:06.152Z,817.97
2017-11-21T12:13:06.759Z,817.97
2017-11-21T12:14:07.418Z,817.94
2017-11-21T12:15:08.029Z,817.94
2017-11-21T12:16:08.642Z,817.97
2017-11-21T12:17:09.252Z,817.96
2017-11-21T12:18:09.871Z,817.95
2017-11-21T12:19:10.478Z,818.00
2017-11-21T12:20:11.090Z,817.94
2017-11-21T12:21:11.705Z,817.96
2017-11-21T12:22:12.312Z,817.92
2017-11-21T12:23:12.923Z,817.94
2017-11-21T12:24:13.535Z,817.89
2017-11-21T12:25:14.146Z,817.91
2017-11-21T12:26:14.758Z,817.93
2017-11-21T12:27:15.376Z,817.91
2017-11-21T12:28:15.984Z,817.94
2017-11-21T12:29:16.594Z,817.94
2017-11-21T12:30:17.205Z,817.92
2017-11-21T12:31:17.819Z,817.93
2017-11-21T12:32:18.431Z,817.95
2017-11-21T12:33:19.042Z,817.99
2017-11-21T12:34:19.655Z,817.92
2017-11-21T12:35:20.266Z,817.92
2017-11-21T12:36:20.877Z,817.94